シドニー の空港の天気 - METARとTAF

シドニー国際空港 ( YSSY / SYD ) - オーストラリア ニューサウスウェールズ州、Mascot
飛行場実況気象(Metar)
観測時間12/01 06:30 AEDT (11/30 19:30 UTC)
風向・風速北北東 2m/s
視程10km以上
天気現象
少しの雲 雲底高度 550m
全天の4割程度の雲 雲底高度 850m
気温22℃
湿度78%
気圧1013hPa
METARYSSY 301930Z 02004KT 9999 FEW018 SCT028 22/18 Q1013
過去の天気等 Google飛行場航空写真 Wunderground天気予報

過去48時間のMETAR

飛行場予報(TAF)
発表時間: 12/01 04:06 AEDT (11/30 17:06 UTC)
予報対象時間: 1日5時 AEDT ~ 2日11時 AEDT
風向・風速北北西 4m/s
視程10km以上
全天の4割程度の雲 雲底高度 610m
1日10時 AEDT から
風向・風速北北東 8m/s 瞬間風速 13m/s
視程10km以上
少しの雲 雲底高度 1220m
1日20時 AEDT から
風向・風速北西 6m/s
視程10km以上
天気現象弱いしゅう雨
少しの雲 雲底高度 1220m
全天の4割程度の雲 雲底高度 3050m
2日2時 AEDT から
風向・風速南 10m/s 瞬間風速 15m/s
視程10km以上
全天の4割程度の雲 雲底高度 300m
TAF YSSY 301706Z 3018/0200 34008KT 9999 SCT020
FM302300 03015G25KT 9999 FEW040
FM010900 32012KT 9999 -SHRA FEW040 SCT100
FM011500 18020G30KT 9999 SCT010